KBTL/BTL METAR and TAF weather

Enter ICAO airport designator
Station Type Date Time Source
KBTL METAR 2021/09/23 23:53 UTC NOAA

KBTL 232353Z 28016G22KT 10SM OVC036 11/07 A2987 RMK AO2 PK WND 27026/2330 RAB39E48 SLP116 P0000 60000 T01110072 10133 20111 53019


Station Type Date Time Source
KBTL Decoded METAR 2021/09/23 23:53 UTC NOAA

W.K.KELLOGG REGIONAL AIRPORT, MI, United States (KBTL) 42-18N 085-15W 290M
Sep 23, 2021 - 07:53 PM EDT / 2021.09.23 2353 UTC
Wind: from the W (280 degrees) at 18 MPH (16 KT) gusting to 25 MPH (22 KT):0
Visibility: 10 mile(s):0
Sky conditions: overcast
Precipitation last hour: A trace
Temperature: 52.0 F (11.1 C)
Dew Point: 45.0 F (7.2 C)
Relative Humidity: 76%
Pressure (altimeter): 29.87 in. Hg (1011 hPa)
Pressure tendency: 0.06 inches (1.9 hPa) higher than three hours ago
ob: KBTL 232353Z 28016G22KT 10SM OVC036 11/07 A2987 RMK AO2 PK WND 27026/2330 RAB39E48 SLP116 P0000 60000 T01110072 10133 20111 53019
cycle: 0

Station Type Date Time Source
KBTL TAF 2021/09/23 21:42 UTC NOAA

TAF
AMD KBTL 232041Z 2321/2418 31009KT P6SM BKN023 OVC027
FM240000 29011KT P6SM -SHRA OVC018
FM240300 28009KT P6SM VCSH OVC035
FM241000 26005KT P6SM SCT040
FM241400 26007KT P6SM FEW250

Example: see airport list